Time;durP1;ratioP1;P1;durP2;ratioP2;P2;SDS_P1;SDS_P2;PMS_P1;PMS_P2;Temp;Humidity;BMP_temperature;BMP_pressure;BME280_temperature;BME280_humidity;BME280_pressure;Samples;Min_cycle;Max_cycle;Signal;HPM_P1;HPM_P2
2023/09/05 00:01:53;;;;;;;4.28;2.40;;;24.60;42.40;;;;;;5073985;28;20056;-87
2023/09/05 00:04:20;;;;;;;4.72;2.72;;;24.70;42.50;;;;;;5051644;28;20123;-85
2023/09/05 00:07:03;;;;;;;6.45;2.60;;;24.70;42.50;;;;;;5083787;22;20052;-85
2023/09/05 00:09:30;;;;;;;5.45;2.75;;;24.60;42.20;;;;;;5054498;28;20036;-86
2023/09/05 00:12:01;;;;;;;5.47;2.60;;;24.70;42.90;;;;;;5074341;28;20083;-87
2023/09/05 00:14:35;;;;;;;5.72;3.10;;;24.60;42.70;;;;;;5055969;28;20127;-86
2023/09/05 00:17:01;;;;;;;4.70;2.78;;;24.60;42.90;;;;;;5055582;28;20110;-86
2023/09/05 00:19:27;;;;;;;5.15;2.47;;;24.50;42.90;;;;;;5072268;28;20059;-87
2023/09/05 00:21:53;;;;;;;4.70;2.50;;;24.50;43.10;;;;;;5094030;28;20046;-86
2023/09/05 00:24:37;;;;;;;5.25;2.67;;;24.40;43.10;;;;;;5088816;28;20032;-86
2023/09/05 00:27:09;;;;;;;6.47;2.65;;;24.40;43.30;;;;;;5094754;28;20391;-86
2023/09/05 00:29:36;;;;;;;5.80;2.90;;;24.30;43.30;;;;;;5076760;28;20395;-86
2023/09/05 00:32:03;;;;;;;4.75;2.53;;;24.30;43.30;;;;;;5078027;28;20032;-86
2023/09/05 00:34:34;;;;;;;4.80;2.47;;;24.30;43.40;;;;;;5092685;28;20028;-86
2023/09/05 00:37:01;;;;;;;5.95;2.80;;;24.30;43.70;;;;;;5094474;28;20124;-85
2023/09/05 00:39:31;;;;;;;6.10;2.80;;;24.20;43.70;;;;;;5084655;28;20058;-85
2023/09/05 00:41:57;;;;;;;8.63;2.60;;;24.20;44.10;;;;;;5097307;28;20027;-87
2023/09/05 00:44:27;;;;;;;9.95;2.72;;;24.20;43.50;;;;;;5075778;28;20043;-87
2023/09/05 00:46:55;;;;;;;4.25;2.50;;;24.20;43.80;;;;;;5075201;28;20123;-86
2023/09/05 00:49:27;;;;;;;6.22;2.78;;;24.20;43.60;;;;;;5061048;28;20141;-86
2023/09/05 00:52:00;;;;;;;4.90;2.33;;;24.10;43.80;;;;;;5075290;28;20541;-86
2023/09/05 00:54:29;;;;;;;5.05;2.58;;;24.00;43.80;;;;;;5076365;28;20067;-87
2023/09/05 00:56:55;;;;;;;6.45;2.80;;;24.00;44.10;;;;;;5079037;28;20043;-86
2023/09/05 00:59:21;;;;;;;4.88;2.45;;;24.00;44.20;;;;;;5062808;28;20139;-86
2023/09/05 01:01:48;;;;;;;4.38;2.75;;;23.90;44.60;;;;;;5079107;28;20376;-86
2023/09/05 01:04:14;;;;;;;4.88;2.92;;;24.00;44.80;;;;;;5097376;28;20035;-84
2023/09/05 01:07:06;;;;;;;6.30;2.92;;;23.90;44.80;;;;;;5097354;28;20056;-86
2023/09/05 01:09:56;;;;;;;6.95;2.83;;;23.80;45.10;;;;;;5098947;28;20063;-86
2023/09/05 01:12:23;;;;;;;8.65;3.15;;;23.90;45.20;;;;;;5104470;28;20056;-85
2023/09/05 01:14:49;;;;;;;6.10;3.05;;;23.80;45.40;;;;;;5076825;28;20051;-85
2023/09/05 01:17:16;;;;;;;7.35;2.78;;;23.70;45.70;;;;;;5059039;28;20476;-87
2023/09/05 01:19:42;;;;;;;4.80;2.78;;;23.70;45.90;;;;;;5063935;28;20040;-86
2023/09/05 01:22:44;;;;;;;6.10;2.78;;;23.70;45.90;;;;;;5070498;28;20028;-87
2023/09/05 01:25:12;;;;;;;6.93;2.85;;;23.70;46.30;;;;;;5065846;28;20025;-85
2023/09/05 01:27:39;;;;;;;6.15;2.50;;;23.60;46.40;;;;;;5079622;28;20075;-87
2023/09/05 01:30:09;;;;;;;5.00;2.95;;;23.50;46.60;;;;;;5075987;28;20066;-86
2023/09/05 01:32:35;;;;;;;8.40;2.80;;;23.50;46.60;;;;;;5076332;28;20475;-87
2023/09/05 01:35:11;;;;;;;6.20;2.85;;;23.50;46.20;;;;;;5057767;28;20028;-86
2023/09/05 01:37:43;;;;;;;6.30;2.50;;;23.40;46.10;;;;;;5057326;28;20127;-86
2023/09/05 01:40:11;;;;;;;5.00;2.40;;;23.40;46.70;;;;;;5058036;28;20645;-86
2023/09/05 01:42:38;;;;;;;6.95;2.45;;;23.40;46.40;;;;;;5057280;28;20068;-86
2023/09/05 01:45:07;;;;;;;5.43;2.70;;;23.40;46.30;;;;;;5057315;28;20114;-86
2023/09/05 01:47:33;;;;;;;4.88;2.85;;;23.40;46.80;;;;;;5058363;28;20195;-86
2023/09/05 01:49:59;;;;;;;6.40;3.00;;;23.30;46.60;;;;;;5061072;28;20066;-87
2023/09/05 01:52:45;;;;;;;7.40;2.92;;;23.30;46.60;;;;;;5076215;28;20055;-86
2023/09/05 01:55:13;;;;;;;6.32;2.83;;;23.40;46.90;;;;;;5074873;28;20052;-87
2023/09/05 01:57:39;;;;;;;4.03;2.40;;;23.40;47.60;;;;;;5057470;28;20040;-86
2023/09/05 02:00:08;;;;;;;4.47;2.63;;;23.40;46.90;;;;;;5075468;28;20496;-85
2023/09/05 02:02:35;;;;;;;8.73;2.90;;;23.40;47.10;;;;;;5057312;28;20082;-85
2023/09/05 02:05:02;;;;;;;7.28;3.20;;;23.30;47.10;;;;;;5056734;28;20050;-86
2023/09/05 02:07:29;;;;;;;4.95;2.40;;;23.30;46.80;;;;;;5075986;28;20033;-86
2023/09/05 02:09:55;;;;;;;7.32;2.97;;;23.30;47.50;;;;;;5068641;28;20043;-86
2023/09/05 02:12:21;;;;;;;7.78;3.10;;;23.30;47.40;;;;;;5057437;28;20032;-86
2023/09/05 02:14:47;;;;;;;4.75;2.88;;;23.30;47.40;;;;;;5057614;28;20404;-86
2023/09/05 02:17:18;;;;;;;6.82;2.92;;;23.30;47.30;;;;;;5057258;28;20032;-84
2023/09/05 02:19:44;;;;;;;5.57;2.88;;;23.30;47.80;;;;;;5057667;28;20056;-86
2023/09/05 02:22:09;;;;;;;9.55;2.67;;;23.30;47.80;;;;;;5058243;28;20033;-87
2023/09/05 02:24:36;;;;;;;6.68;2.55;;;23.30;47.50;;;;;;5058326;28;20166;-86
2023/09/05 02:27:14;;;;;;;6.25;2.72;;;23.30;48.50;;;;;;5058490;28;20032;-87
2023/09/05 02:29:49;;;;;;;6.28;2.88;;;23.30;48.40;;;;;;5075565;28;20029;-86
2023/09/05 02:32:18;;;;;;;6.00;2.88;;;23.20;48.40;;;;;;5058713;28;20043;-84
2023/09/05 02:34:58;;;;;;;4.90;2.53;;;23.20;48.30;;;;;;5057145;28;20040;-85
2023/09/05 02:37:27;;;;;;;4.60;2.53;;;23.20;48.70;;;;;;5059866;28;20043;-85
2023/09/05 02:39:53;;;;;;;4.97;2.40;;;23.20;48.20;;;;;;5065880;28;20033;-83
2023/09/05 02:42:19;;;;;;;4.80;2.60;;;23.10;48.40;;;;;;5076354;28;20607;-86
2023/09/05 02:44:45;;;;;;;4.63;2.50;;;23.10;48.70;;;;;;5078963;28;20036;-86
2023/09/05 02:47:25;;;;;;;8.15;2.95;;;23.20;48.70;;;;;;5071933;28;20035;-87
2023/09/05 02:49:54;;;;;;;5.60;2.60;;;23.20;48.90;;;;;;5056526;28;20047;-86
2023/09/05 02:52:21;;;;;;;6.45;3.13;;;23.30;49.20;;;;;;5059140;28;20036;-87
2023/09/05 02:54:50;;;;;;;7.47;3.22;;;23.30;49.10;;;;;;5059137;28;20067;-86
2023/09/05 02:57:17;;;;;;;5.05;2.58;;;23.30;49.20;;;;;;5079007;28;20104;-85
2023/09/05 02:59:44;;;;;;;6.45;2.50;;;23.20;49.30;;;;;;5083217;28;20104;-84
2023/09/05 03:02:11;;;;;;;7.53;3.03;;;23.20;48.90;;;;;;5062764;28;20064;-85
2023/09/05 03:04:46;;;;;;;6.43;2.88;;;23.20;49.30;;;;;;5062131;28;20134;-86
2023/09/05 03:07:15;;;;;;;6.28;2.70;;;23.10;49.30;;;;;;5068950;28;20045;-86
2023/09/05 03:09:41;;;;;;;3.88;2.42;;;23.10;49.00;;;;;;5059573;28;20032;-88
2023/09/05 03:12:06;;;;;;;5.65;2.75;;;23.10;49.10;;;;;;5058383;28;20043;-85
2023/09/05 03:14:32;;;;;;;4.47;3.03;;;23.20;49.40;;;;;;5055831;28;20043;-85
2023/09/05 03:17:26;;;;;;;5.90;2.58;;;23.20;49.40;;;;;;5068939;28;20032;-87
2023/09/05 03:19:52;;;;;;;6.05;2.75;;;23.20;49.70;;;;;;5073778;28;20395;-87
2023/09/05 03:22:18;;;;;;;8.50;3.20;;;23.20;49.30;;;;;;5055862;28;20036;-86
2023/09/05 03:24:45;;;;;;;6.97;3.03;;;23.20;49.50;;;;;;5055987;28;20040;-86
2023/09/05 03:27:20;;;;;;;13.57;3.13;;;23.10;49.40;;;;;;5055345;28;20650;-86
2023/09/05 03:29:46;;;;;;;8.77;2.83;;;23.00;50.30;;;;;;5055590;28;20048;-84
2023/09/05 03:32:11;;;;;;;7.95;2.97;;;23.00;49.80;;;;;;5073514;28;20329;-85
2023/09/05 03:34:48;;;;;;;7.95;2.90;;;23.00;50.00;;;;;;5055642;28;20053;-85
2023/09/05 03:37:14;;;;;;;5.05;3.28;;;23.00;50.60;;;;;;5055107;28;20086;-86
2023/09/05 03:39:40;;;;;;;8.63;2.95;;;23.00;50.20;;;;;;5055178;28;20148;-84
2023/09/05 03:42:06;;;;;;;9.05;3.15;;;22.90;50.60;;;;;;5072281;28;20068;-85
2023/09/05 03:44:33;;;;;;;7.57;2.90;;;22.90;50.90;;;;;;5055219;28;20033;-85
2023/09/05 03:46:59;;;;;;;4.45;2.42;;;22.80;51.10;;;;;;5055169;28;20116;-86
2023/09/05 03:49:27;;;;;;;6.88;2.90;;;22.80;51.00;;;;;;5055775;28;20070;-85
2023/09/05 03:51:57;;;;;;;9.70;4.68;;;22.70;51.40;;;;;;5054995;28;20029;-85
2023/09/05 03:54:24;;;;;;;7.50;3.10;;;22.70;51.50;;;;;;5055103;28;20135;-85
2023/09/05 03:56:50;;;;;;;6.88;2.72;;;22.60;51.80;;;;;;5055137;28;20542;-85
2023/09/05 03:59:16;;;;;;;5.32;2.60;;;22.60;51.80;;;;;;5055146;28;20139;-85
2023/09/05 04:01:43;;;;;;;6.22;2.88;;;22.50;51.60;;;;;;5055326;28;20028;-85
2023/09/05 04:04:09;;;;;;;5.25;2.55;;;22.50;51.70;;;;;;5081946;28;20070;-85
2023/09/05 04:06:43;;;;;;;5.05;2.70;;;22.40;52.10;;;;;;5056373;28;20040;-88
2023/09/05 04:09:10;;;;;;;9.57;2.80;;;22.40;52.10;;;;;;5071302;28;20174;-86
2023/09/05 04:11:35;;;;;;;8.48;2.72;;;22.40;52.30;;;;;;5040586;28;20033;-85
2023/09/05 04:14:07;;;;;;;5.78;2.42;;;22.40;52.50;;;;;;5059847;28;20051;-87
2023/09/05 04:16:44;;;;;;;3.60;2.35;;;22.30;52.20;;;;;;5056168;28;20033;-87
2023/09/05 04:19:10;;;;;;;6.40;2.80;;;22.30;52.70;;;;;;5054958;28;20068;-88
2023/09/05 04:21:41;;;;;;;7.03;3.03;;;22.30;52.50;;;;;;5058713;28;20408;-87
2023/09/05 04:24:10;;;;;;;10.25;3.03;;;22.40;52.40;;;;;;5057127;28;20037;-86
2023/09/05 04:26:37;;;;;;;6.05;3.05;;;22.40;52.30;;;;;;5056406;28;20055;-86
2023/09/05 04:29:14;;;;;;;5.03;2.40;;;22.50;52.30;;;;;;5058885;28;20040;-86
2023/09/05 04:31:40;;;;;;;6.05;2.80;;;22.50;52.10;;;;;;5078089;28;20086;-87
2023/09/05 04:34:12;;;;;;;6.07;2.97;;;22.60;52.20;;;;;;5079994;28;20028;-87
2023/09/05 04:36:38;;;;;;;9.43;2.97;;;22.70;52.30;;;;;;5072679;28;20052;-87
2023/09/05 04:39:06;;;;;;;7.22;2.72;;;22.80;52.40;;;;;;5070535;28;20110;-86
2023/09/05 04:41:33;;;;;;;5.75;2.63;;;22.90;52.20;;;;;;5082075;28;20059;-87
2023/09/05 04:43:59;;;;;;;6.93;2.42;;;22.90;52.10;;;;;;5067311;28;20025;-85
2023/09/05 04:46:24;;;;;;;6.60;2.85;;;22.90;52.10;;;;;;5058940;28;20404;-85
2023/09/05 04:48:50;;;;;;;8.45;3.05;;;22.80;52.00;;;;;;5077272;28;20426;-85
2023/09/05 04:51:17;;;;;;;7.60;2.90;;;22.80;52.20;;;;;;5075978;28;20059;-85
2023/09/05 04:53:53;;;;;;;5.93;2.75;;;22.70;52.20;;;;;;5059205;28;20280;-87
2023/09/05 04:56:20;;;;;;;7.85;3.08;;;22.60;52.20;;;;;;5075946;28;20048;-87
2023/09/05 04:58:46;;;;;;;7.22;3.20;;;22.60;52.10;;;;;;5077530;28;20403;-87
2023/09/05 05:01:18;;;;;;;5.35;2.95;;;22.60;51.80;;;;;;5061067;28;20052;-89
2023/09/05 05:03:49;;;;;;;6.53;2.85;;;22.50;52.20;;;;;;5080347;28;20151;-88
2023/09/05 05:06:22;;;;;;;7.30;2.72;;;22.40;52.50;;;;;;5077225;28;20072;-88
2023/09/05 05:08:57;;;;;;;5.68;2.65;;;22.40;52.50;;;;;;5076990;28;20431;-85
2023/09/05 05:11:28;;;;;;;8.70;2.90;;;22.40;52.60;;;;;;5058332;28;20036;-87
2023/09/05 05:13:59;;;;;;;9.25;2.97;;;22.40;52.70;;;;;;5058249;28;20033;-86
2023/09/05 05:16:25;;;;;;;8.82;2.78;;;22.30;52.80;;;;;;5077119;28;20465;-85
2023/09/05 05:18:51;;;;;;;5.05;2.78;;;22.30;52.80;;;;;;5058479;28;20037;-87
2023/09/05 05:21:16;;;;;;;7.75;2.90;;;22.30;52.90;;;;;;5058979;28;20028;-87
2023/09/05 05:23:42;;;;;;;7.95;2.88;;;22.30;53.00;;;;;;5059333;28;20032;-85
2023/09/05 05:26:23;;;;;;;5.75;2.92;;;22.30;53.00;;;;;;5058515;28;20116;-88
2023/09/05 05:28:51;;;;;;;7.35;3.05;;;22.30;52.90;;;;;;5077069;28;20111;-88
2023/09/05 05:31:16;;;;;;;7.25;2.78;;;22.30;53.10;;;;;;5059319;28;20476;-84
2023/09/05 05:33:44;;;;;;;9.43;3.08;;;22.30;52.90;;;;;;5059081;28;20082;-86
2023/09/05 05:36:32;;;;;;;5.97;3.15;;;22.40;53.10;;;;;;5077342;28;20105;-87
2023/09/05 05:39:03;;;;;;;6.78;2.80;;;22.40;53.10;;;;;;5062349;28;20140;-87
2023/09/05 05:41:34;;;;;;;6.90;2.63;;;22.40;52.90;;;;;;5090372;28;20045;-89
2023/09/05 05:44:00;;;;;;;7.93;3.00;;;22.50;52.90;;;;;;5066460;28;20119;-86
2023/09/05 05:46:26;;;;;;;6.60;2.78;;;22.60;52.70;;;;;;5065739;28;20052;-87
2023/09/05 05:48:52;;;;;;;10.27;2.90;;;22.80;52.70;;;;;;5059385;28;20059;-86
2023/09/05 05:51:18;;;;;;;6.97;3.08;;;22.90;52.20;;;;;;5076623;28;20426;-86
2023/09/05 05:53:44;;;;;;;11.05;2.78;;;23.20;51.90;;;;;;5056461;28;20044;-83
2023/09/05 05:56:10;;;;;;;10.27;3.20;;;23.40;51.50;;;;;;5077808;28;20086;-84
2023/09/05 05:58:36;;;;;;;8.57;2.65;;;23.70;51.00;;;;;;5058636;28;20032;-83
2023/09/05 06:01:05;;;;;;;8.13;2.63;;;24.00;50.60;;;;;;5066421;28;20029;-87
2023/09/05 06:03:31;;;;;;;6.88;2.80;;;24.20;50.20;;;;;;5073935;28;20526;-85
2023/09/05 06:05:56;;;;;;;6.95;3.03;;;24.30;49.80;;;;;;5058837;28;20056;-84
2023/09/05 06:08:22;;;;;;;6.65;2.67;;;24.40;49.70;;;;;;5057370;28;20116;-82
2023/09/05 06:10:49;;;;;;;10.98;3.13;;;24.70;49.70;;;;;;5074504;28;20107;-81
2023/09/05 06:13:14;;;;;;;6.47;2.45;;;24.80;49.10;;;;;;5074218;28;20036;-79
2023/09/05 06:15:40;;;;;;;6.28;2.90;;;25.00;49.00;;;;;;5074202;28;20020;-80
2023/09/05 06:18:08;;;;;;;12.38;3.10;;;25.10;48.70;;;;;;5073967;28;20036;-82
2023/09/05 06:20:34;;;;;;;5.32;2.42;;;25.20;48.70;;;;;;5073988;28;20051;-82
2023/09/05 06:23:01;;;;;;;9.13;2.72;;;25.40;48.40;;;;;;5073707;28;20542;-83
2023/09/05 06:25:27;;;;;;;9.07;2.60;;;25.50;48.70;;;;;;5055673;28;20035;-82
2023/09/05 06:27:53;;;;;;;8.15;2.55;;;25.50;47.70;;;;;;5073613;28;20067;-81
2023/09/05 06:30:19;;;;;;;8.02;2.83;;;25.50;47.40;;;;;;5073257;28;20076;-82
2023/09/05 06:32:44;;;;;;;6.68;2.70;;;25.70;47.70;;;;;;5055849;28;20028;-84
2023/09/05 06:35:10;;;;;;;11.60;3.08;;;25.90;47.20;;;;;;5073624;28;20060;-82
2023/09/05 06:37:36;;;;;;;8.20;2.80;;;26.00;47.10;;;;;;5073673;28;20410;-81
2023/09/05 06:40:09;;;;;;;7.18;2.80;;;26.10;47.00;;;;;;5078259;28;20049;-82
2023/09/05 06:42:39;;;;;;;5.45;2.63;;;26.30;46.10;;;;;;5090158;28;20143;-84
2023/09/05 06:45:05;;;;;;;4.95;2.58;;;26.30;46.30;;;;;;5074428;28;20028;-85
2023/09/05 06:47:31;;;;;;;6.88;2.67;;;26.30;45.80;;;;;;5078331;28;20038;-82
2023/09/05 06:49:57;;;;;;;7.60;2.95;;;26.30;46.10;;;;;;5094065;28;20123;-82
2023/09/05 06:52:23;;;;;;;5.88;2.85;;;26.30;46.20;;;;;;5093865;28;20021;-83
2023/09/05 06:54:48;;;;;;;12.57;3.03;;;26.40;45.90;;;;;;5094668;28;20135;-81
2023/09/05 06:57:16;;;;;;;10.15;2.90;;;26.40;45.70;;;;;;5102710;28;20483;-86
2023/09/05 06:59:42;;;;;;;7.47;2.88;;;26.50;45.70;;;;;;5086081;28;20048;-86
2023/09/05 07:02:08;;;;;;;9.40;2.85;;;26.50;45.40;;;;;;5104217;28;20058;-88
2023/09/05 07:04:36;;;;;;;8.35;3.00;;;26.50;45.30;;;;;;5111009;28;20036;-85
2023/09/05 07:07:05;;;;;;;10.70;3.17;;;26.50;45.20;;;;;;5099491;28;20040;-83
2023/09/05 07:09:31;;;;;;;9.88;3.08;;;26.50;45.10;;;;;;5093049;28;20353;-84
2023/09/05 07:11:57;;;;;;;12.45;2.70;;;26.70;45.10;;;;;;5094442;28;20028;-85
2023/09/05 07:14:23;;;;;;;6.25;2.58;;;26.70;44.90;;;;;;5095479;28;20036;-84
2023/09/05 07:16:49;;;;;;;8.90;2.80;;;26.80;44.70;;;;;;5093336;28;20024;-83
2023/09/05 07:19:17;;;;;;;8.55;2.70;;;26.80;44.50;;;;;;5092790;28;20051;-84
2023/09/05 07:21:46;;;;;;;6.22;2.50;;;26.80;44.40;;;;;;5094230;28;20396;-82
2023/09/05 07:24:13;;;;;;;7.68;2.50;;;26.80;43.50;;;;;;5092654;28;20484;-82
2023/09/05 07:26:40;;;;;;;10.52;2.45;;;26.80;44.40;;;;;;5092488;28;20036;-83
2023/09/05 07:29:08;;;;;;;11.57;2.70;;;26.80;44.20;;;;;;5093325;28;20032;-83
2023/09/05 07:31:34;;;;;;;10.68;2.70;;;26.90;44.10;;;;;;5091883;28;20059;-81
2023/09/05 07:34:00;;;;;;;9.82;2.90;;;26.90;44.00;;;;;;5093714;28;20044;-82
2023/09/05 07:36:27;;;;;;;7.82;2.65;;;26.90;44.00;;;;;;5092201;28;20049;-85
2023/09/05 07:38:53;;;;;;;8.27;2.70;;;26.90;44.00;;;;;;5093582;28;20135;-84
2023/09/05 07:41:19;;;;;;;5.55;2.80;;;26.90;43.90;;;;;;5093908;28;20052;-84
2023/09/05 07:43:45;;;;;;;12.23;3.05;;;26.90;43.70;;;;;;5094154;28;20487;-84
2023/09/05 07:46:11;;;;;;;6.93;2.70;;;26.80;43.70;;;;;;5093221;28;20055;-84
2023/09/05 07:48:37;;;;;;;6.28;2.40;;;26.80;43.60;;;;;;5092390;28;20169;-84
2023/09/05 07:51:06;;;;;;;9.10;3.00;;;26.80;43.60;;;;;;5091956;28;20097;-81
2023/09/05 07:53:35;;;;;;;10.88;2.58;;;26.80;43.90;;;;;;5095898;28;20462;-84
2023/09/05 07:56:02;;;;;;;11.70;2.70;;;26.80;43.70;;;;;;5092143;28;20050;-85
2023/09/05 07:58:28;;;;;;;13.13;3.25;;;26.90;43.90;;;;;;5093470;28;20028;-83
2023/09/05 08:00:55;;;;;;;9.90;2.50;;;26.90;43.70;;;;;;5093842;28;20538;-84
2023/09/05 08:03:21;;;;;;;6.85;2.70;;;26.90;43.70;;;;;;5092880;28;20036;-83
2023/09/05 08:05:50;;;;;;;9.27;2.92;;;27.00;43.70;;;;;;5092339;28;20048;-84
2023/09/05 08:08:17;;;;;;;9.68;2.70;;;27.00;42.80;;;;;;5093310;28;20020;-85
2023/09/05 08:10:43;;;;;;;8.30;2.83;;;27.00;43.50;;;;;;5091950;28;20033;-83
2023/09/05 08:13:14;;;;;;;8.98;2.72;;;27.00;43.50;;;;;;5091986;28;20036;-85
2023/09/05 08:15:43;;;;;;;6.85;2.60;;;26.80;42.60;;;;;;5091850;28;20060;-83
2023/09/05 08:18:10;;;;;;;9.68;2.85;;;26.80;43.80;;;;;;5091802;28;20054;-86
2023/09/05 08:20:36;;;;;;;8.05;2.53;;;26.70;43.80;;;;;;5094822;28;20502;-84
2023/09/05 08:23:03;;;;;;;5.95;2.40;;;26.60;44.30;;;;;;5100039;28;20028;-85
2023/09/05 08:25:29;;;;;;;9.02;2.45;;;26.60;43.80;;;;;;5093446;28;20043;-85
2023/09/05 08:27:56;;;;;;;5.75;2.15;;;26.60;44.00;;;;;;5094421;28;20020;-86
2023/09/05 08:30:24;;;;;;;6.75;2.22;;;26.60;43.80;;;;;;5105843;28;20111;-85
2023/09/05 08:32:50;;;;;;;7.65;2.60;;;26.60;43.80;;;;;;5100117;28;20089;-84
2023/09/05 08:35:16;;;;;;;8.35;2.65;;;26.60;44.10;;;;;;5094096;28;20549;-85
2023/09/05 08:37:43;;;;;;;5.03;2.58;;;26.60;44.20;;;;;;5095126;28;20028;-84
2023/09/05 08:40:09;;;;;;;5.57;2.85;;;26.60;44.10;;;;;;5095803;28;20395;-85
2023/09/05 08:42:36;;;;;;;7.20;2.40;;;26.60;43.80;;;;;;5094281;28;20024;-85
2023/09/05 08:45:03;;;;;;;6.88;2.50;;;26.60;44.20;;;;;;5093590;28;20101;-85
2023/09/05 08:47:30;;;;;;;5.80;2.60;;;26.70;43.90;;;;;;5094068;28;20031;-84
2023/09/05 08:49:56;;;;;;;8.65;2.60;;;26.60;43.90;;;;;;5094120;28;20035;-84
2023/09/05 08:52:31;;;;;;;5.15;2.20;;;26.70;43.90;;;;;;5092804;28;20047;-82
2023/09/05 08:54:59;;;;;;;10.00;2.88;;;26.70;42.80;;;;;;5092582;28;20028;-82
2023/09/05 08:57:26;;;;;;;6.90;2.58;;;26.70;44.00;;;;;;5091383;28;20028;-84
2023/09/05 08:59:54;;;;;;;6.65;2.92;;;26.70;44.60;;;;;;5090815;28;20048;-84
2023/09/05 09:02:20;;;;;;;6.40;2.50;;;26.70;43.90;;;;;;5091709;28;20115;-84
2023/09/05 09:04:58;;;;;;;5.13;2.67;;;26.70;43.90;;;;;;5075190;28;20482;-85
2023/09/05 09:07:27;;;;;;;5.68;2.30;;;26.80;43.80;;;;;;5093128;28;20127;-82
2023/09/05 09:09:54;;;;;;;5.57;2.75;;;26.90;43.60;;;;;;5091261;28;20044;-86
2023/09/05 09:12:30;;;;;;;7.97;3.53;;;26.90;43.60;;;;;;5092650;28;20525;-86
2023/09/05 09:15:09;;;;;;;6.00;2.90;;;27.00;44.40;;;;;;5092977;28;20036;-84
2023/09/05 09:17:42;;;;;;;6.00;2.63;;;27.00;42.70;;;;;;5097537;28;20472;-83
2023/09/05 09:20:12;;;;;;;8.77;2.92;;;27.10;43.70;;;;;;5099245;28;20040;-85
2023/09/05 09:22:39;;;;;;;7.55;2.90;;;27.10;43.20;;;;;;5095494;28;20085;-85
2023/09/05 09:25:20;;;;;;;8.68;2.67;;;27.10;43.70;;;;;;5096326;28;20035;-85
2023/09/05 09:27:53;;;;;;;5.65;2.80;;;27.20;43.40;;;;;;5096565;28;20028;-87
2023/09/05 09:30:29;;;;;;;7.00;2.72;;;27.20;42.00;;;;;;5097130;28;20028;-85
2023/09/05 09:32:55;;;;;;;11.05;2.40;;;27.20;43.20;;;;;;5097088;28;20695;-84
2023/09/05 09:35:22;;;;;;;10.07;2.58;;;27.30;43.30;;;;;;5095831;28;20035;-83
2023/09/05 09:37:49;;;;;;;7.80;2.70;;;27.40;43.00;;;;;;5097825;28;20123;-85
2023/09/05 09:40:16;;;;;;;6.50;3.00;;;27.40;42.90;;;;;;5105334;28;20047;-83
2023/09/05 09:42:46;;;;;;;6.45;2.60;;;27.40;42.80;;;;;;5098133;28;20032;-84
2023/09/05 09:45:12;;;;;;;7.65;2.58;;;27.40;41.60;;;;;;5097021;28;20040;-84
2023/09/05 09:47:47;;;;;;;6.90;2.88;;;27.50;42.70;;;;;;5095926;28;20042;-85
2023/09/05 09:50:14;;;;;;;9.25;2.83;;;27.60;42.60;;;;;;5094950;28;20340;-83
2023/09/05 09:52:44;;;;;;;6.95;2.33;;;27.70;42.40;;;;;;5095290;28;20099;-85
2023/09/05 09:55:13;;;;;;;7.28;2.47;;;27.70;42.40;;;;;;5112527;28;20078;-83
2023/09/05 09:58:06;;;;;;;9.95;2.70;;;27.70;42.20;;;;;;5112381;28;20028;-85
2023/09/05 10:00:35;;;;;;;4.43;2.00;;;27.80;42.40;;;;;;5095724;28;20098;-85
2023/09/05 10:03:04;;;;;;;6.05;2.53;;;27.80;41.80;;;;;;5096364;28;20081;-84
2023/09/05 10:05:31;;;;;;;6.20;2.30;;;27.80;41.90;;;;;;5094825;28;20071;-84
2023/09/05 10:07:58;;;;;;;5.05;2.10;;;27.90;41.60;;;;;;5096174;28;20020;-83
2023/09/05 10:10:25;;;;;;;10.23;2.67;;;27.90;41.80;;;;;;5094298;28;20123;-84
2023/09/05 10:12:54;;;;;;;11.15;2.88;;;27.90;41.70;;;;;;5096257;28;20506;-83
2023/09/05 10:15:21;;;;;;;6.43;2.53;;;28.00;41.90;;;;;;5095747;28;20040;-85
2023/09/05 10:17:49;;;;;;;5.30;2.40;;;28.10;41.70;;;;;;5094498;28;20070;-84
2023/09/05 10:20:19;;;;;;;7.78;2.70;;;28.10;41.50;;;;;;5094728;28;20040;-85
2023/09/05 10:22:46;;;;;;;7.68;2.20;;;28.20;41.40;;;;;;5095884;28;20391;-84
2023/09/05 10:25:14;;;;;;;5.32;2.22;;;28.20;41.20;;;;;;5095308;28;20032;-83
2023/09/05 10:27:40;;;;;;;5.63;2.55;;;28.20;41.30;;;;;;5095036;28;20028;-85
2023/09/05 10:30:07;;;;;;;6.03;2.38;;;28.40;41.10;;;;;;5095675;28;20032;-83
2023/09/05 10:32:33;;;;;;;6.07;2.75;;;28.40;41.00;;;;;;5095929;28;20197;-83
2023/09/05 10:35:03;;;;;;;4.97;2.38;;;28.50;41.00;;;;;;5097538;28;20083;-84
2023/09/05 10:37:39;;;;;;;10.35;2.58;;;28.60;41.10;;;;;;5101067;28;20085;-85
2023/09/05 10:40:09;;;;;;;6.22;2.40;;;28.60;39.90;;;;;;5108437;28;20047;-83
2023/09/05 10:42:56;;;;;;;9.90;2.70;;;28.70;39.80;;;;;;5099763;28;20043;-84
2023/09/05 10:45:22;;;;;;;8.27;2.38;;;28.70;40.70;;;;;;5093491;28;20055;-84
2023/09/05 10:47:49;;;;;;;7.15;2.17;;;28.70;40.40;;;;;;5094409;28;20475;-84
2023/09/05 10:50:22;;;;;;;7.53;2.20;;;28.80;40.60;;;;;;5094974;28;20035;-85
2023/09/05 10:53:10;;;;;;;8.18;2.35;;;28.80;40.30;;;;;;5094670;28;20036;-84
2023/09/05 10:55:44;;;;;;;6.13;2.40;;;29.00;39.30;;;;;;5094562;28;20036;-84
2023/09/05 10:58:47;;;;;;;5.13;2.40;;;29.00;39.90;;;;;;5100079;28;20024;-83
2023/09/05 11:01:32;;;;;;;7.57;2.70;;;29.00;39.20;;;;;;5094067;28;20139;-84
2023/09/05 11:04:07;;;;;;;7.25;2.42;;;29.10;39.20;;;;;;5095802;28;20468;-85
2023/09/05 11:06:34;;;;;;;5.35;1.98;;;29.10;40.30;;;;;;5094496;28;20043;-85
2023/09/05 11:09:04;;;;;;;5.32;2.40;;;29.20;39.60;;;;;;5095118;28;20059;-84
2023/09/05 11:11:30;;;;;;;6.68;2.40;;;29.30;39.50;;;;;;5093183;28;20035;-84
2023/09/05 11:13:57;;;;;;;5.10;1.92;;;29.30;38.90;;;;;;5093290;28;20032;-85
2023/09/05 11:16:24;;;;;;;4.97;2.15;;;29.40;38.10;;;;;;5094808;28;20024;-85
2023/09/05 11:18:57;;;;;;;7.57;1.95;;;29.40;38.00;;;;;;5098537;28;20119;-85
2023/09/05 11:21:24;;;;;;;4.82;2.25;;;29.50;38.00;;;;;;5111962;28;20036;-84
2023/09/05 11:23:54;;;;;;;6.32;2.25;;;29.60;38.20;;;;;;5103567;28;20024;-85
2023/09/05 11:26:21;;;;;;;3.95;2.00;;;29.60;37.60;;;;;;5094745;28;20032;-85
2023/09/05 11:28:51;;;;;;;5.75;2.45;;;29.60;38.20;;;;;;5094925;28;20032;-84
2023/09/05 11:31:18;;;;;;;6.25;2.30;;;29.70;37.80;;;;;;5094820;28;20164;-85
2023/09/05 11:33:45;;;;;;;5.18;1.83;;;29.70;37.70;;;;;;5094805;28;20067;-85
2023/09/05 11:36:11;;;;;;;5.07;1.85;;;29.70;37.70;;;;;;5097235;28;20085;-84
2023/09/05 11:38:48;;;;;;;9.65;2.05;;;29.80;37.40;;;;;;5093444;28;20043;-83
2023/09/05 11:41:14;;;;;;;4.75;2.17;;;29.80;37.40;;;;;;5094292;28;20520;-86
2023/09/05 11:43:48;;;;;;;5.93;2.17;;;29.80;37.50;;;;;;5094146;28;20451;-85
2023/09/05 11:46:19;;;;;;;4.05;2.20;;;29.90;37.30;;;;;;5094021;28;20066;-83
2023/09/05 11:48:47;;;;;;;7.90;2.33;;;29.90;37.30;;;;;;5092086;28;20028;-84
2023/09/05 11:51:14;;;;;;;6.75;2.17;;;29.90;37.20;;;;;;5093508;28;20487;-83
2023/09/05 11:53:43;;;;;;;6.43;2.30;;;30.00;37.10;;;;;;5099939;28;20039;-84
2023/09/05 11:56:10;;;;;;;6.03;2.20;;;30.10;37.20;;;;;;5097272;28;20088;-84
2023/09/05 11:58:36;;;;;;;5.28;2.22;;;30.10;37.30;;;;;;5094406;28;20036;-84
2023/09/05 12:01:02;;;;;;;5.75;2.17;;;30.20;37.40;;;;;;5092794;28;20044;-85
2023/09/05 12:03:36;;;;;;;6.47;2.15;;;30.20;37.60;;;;;;5094720;28;20039;-85
2023/09/05 12:06:02;;;;;;;8.27;2.80;;;30.20;37.40;;;;;;5092767;28;20052;-84
2023/09/05 12:08:30;;;;;;;5.70;2.20;;;30.30;37.60;;;;;;5094015;28;20029;-83
2023/09/05 12:10:57;;;;;;;3.80;1.90;;;30.30;37.50;;;;;;5094111;28;20020;-83
2023/09/05 12:13:40;;;;;;;4.30;2.47;;;30.30;37.40;;;;;;5095095;28;20020;-85
2023/09/05 12:16:07;;;;;;;;;;;30.40;37.40;;;;;;5097650;28;20418;-83
2023/09/05 12:18:33;;;;;;;7.10;2.25;;;30.40;37.30;;;;;;5093925;28;19915;-85
2023/09/05 12:21:00;;;;;;;7.03;2.60;;;30.50;37.60;;;;;;5092960;28;20044;-85
2023/09/05 12:23:30;;;;;;;6.15;2.30;;;30.60;37.60;;;;;;5092417;28;20030;-84
2023/09/05 12:25:57;;;;;;;7.22;2.30;;;30.60;37.30;;;;;;5093127;28;20028;-84
2023/09/05 12:28:24;;;;;;;5.78;2.30;;;30.70;37.40;;;;;;5093496;28;20028;-84
2023/09/05 12:30:53;;;;;;;5.35;2.38;;;30.70;37.30;;;;;;5097806;28;20043;-85
2023/09/05 12:33:20;;;;;;;4.28;2.15;;;30.60;37.70;;;;;;5100836;28;20032;-84
2023/09/05 12:35:46;;;;;;;5.15;2.22;;;30.60;37.60;;;;;;5109628;28;20036;-84
2023/09/05 12:38:14;;;;;;;7.63;1.98;;;30.70;37.70;;;;;;5114928;28;20039;-82
2023/09/05 12:40:40;;;;;;;5.75;2.22;;;30.70;37.80;;;;;;5098365;28;20097;-84
2023/09/05 12:43:06;;;;;;;6.63;2.05;;;30.90;37.90;;;;;;5093215;28;20051;-85
2023/09/05 12:45:35;;;;;;;12.60;2.47;;;30.90;37.40;;;;;;5095890;28;20044;-83
2023/09/05 12:48:01;;;;;;;6.35;2.22;;;31.00;37.70;;;;;;5106196;28;20499;-84
2023/09/05 12:50:29;;;;;;;4.50;2.08;;;31.00;37.30;;;;;;5095568;28;20040;-85
2023/09/05 12:53:05;;;;;;;6.82;2.15;;;31.10;37.40;;;;;;5095810;28;20032;-85
2023/09/05 12:55:32;;;;;;;4.93;2.15;;;31.10;37.30;;;;;;5096430;28;20170;-84